createdAt,value
2022-07-28T00:00:44.633Z,14.60
2022-07-28T00:03:11.459Z,14.70
2022-07-28T00:05:38.493Z,14.70
2022-07-28T00:08:05.494Z,14.60
2022-07-28T00:10:32.477Z,14.60
2022-07-28T00:13:00.037Z,14.60
2022-07-28T00:15:27.521Z,14.60
2022-07-28T00:17:54.314Z,14.60
2022-07-28T00:20:21.430Z,14.60
2022-07-28T00:22:48.174Z,14.60
2022-07-28T00:25:15.342Z,14.60
2022-07-28T00:27:42.094Z,14.60
2022-07-28T00:30:10.067Z,14.50
2022-07-28T00:32:37.781Z,14.40
2022-07-28T00:35:05.110Z,14.50
2022-07-28T00:37:34.950Z,14.20
2022-07-28T00:40:01.899Z,13.90
2022-07-28T00:42:28.663Z,14.00
2022-07-28T00:44:55.380Z,14.20
2022-07-28T00:47:22.476Z,14.00
2022-07-28T00:49:50.388Z,14.20
2022-07-28T00:52:18.356Z,14.10
2022-07-28T00:54:45.282Z,14.00
2022-07-28T00:57:12.010Z,14.10
2022-07-28T00:59:38.762Z,14.20
2022-07-28T01:02:05.772Z,14.10
2022-07-28T01:04:32.611Z,14.00
2022-07-28T01:06:59.288Z,14.10
2022-07-28T01:09:31.956Z,14.10
2022-07-28T01:12:07.926Z,13.80
2022-07-28T01:14:38.300Z,13.90
2022-07-28T01:17:10.974Z,13.90
2022-07-28T01:19:49.055Z,14.00
2022-07-28T01:22:17.513Z,14.10
2022-07-28T01:24:49.683Z,14.00
2022-07-28T01:27:39.759Z,13.80
2022-07-28T01:30:06.747Z,13.70
2022-07-28T01:32:39.227Z,13.80
2022-07-28T01:35:06.019Z,13.80
2022-07-28T01:37:34.224Z,13.90
2022-07-28T01:40:03.191Z,13.90
2022-07-28T01:42:33.437Z,13.90
2022-07-28T01:45:00.905Z,13.90
2022-07-28T01:47:31.720Z,13.70
2022-07-28T01:50:00.837Z,13.90
2022-07-28T01:52:29.075Z,14.00
2022-07-28T01:54:56.785Z,13.90
2022-07-28T01:57:25.268Z,13.80
2022-07-28T01:59:53.191Z,13.80
2022-07-28T02:02:20.612Z,13.80
2022-07-28T02:04:48.704Z,13.80
2022-07-28T02:07:17.207Z,13.90
2022-07-28T02:09:45.593Z,14.00
2022-07-28T02:12:13.681Z,14.10
2022-07-28T02:14:41.449Z,14.20
2022-07-28T02:17:10.798Z,14.10
2022-07-28T02:19:37.972Z,13.90
2022-07-28T02:22:05.213Z,13.70
2022-07-28T02:24:32.328Z,13.80
2022-07-28T02:27:00.982Z,13.90
2022-07-28T02:29:49.684Z,13.80
2022-07-28T02:32:27.084Z,13.90
2022-07-28T02:35:05.310Z,14.00
2022-07-28T02:37:38.546Z,14.00
2022-07-28T02:40:08.723Z,14.00
2022-07-28T02:42:36.238Z,13.90
2022-07-28T02:45:04.606Z,14.00
2022-07-28T02:47:33.303Z,14.10
2022-07-28T02:50:01.051Z,14.10
2022-07-28T02:52:28.311Z,14.00
2022-07-28T02:54:56.677Z,14.10
2022-07-28T02:57:24.239Z,14.10
2022-07-28T02:59:51.517Z,14.00
2022-07-28T03:02:21.766Z,14.10
2022-07-28T03:05:02.181Z,14.20
2022-07-28T03:07:29.643Z,14.10
2022-07-28T03:09:56.414Z,14.20
2022-07-28T03:12:23.175Z,14.20
2022-07-28T03:14:49.901Z,14.10
2022-07-28T03:17:17.003Z,14.10
2022-07-28T03:19:43.772Z,14.10
2022-07-28T03:22:10.716Z,14.10
2022-07-28T03:24:38.709Z,14.10
2022-07-28T03:27:22.851Z,13.80
2022-07-28T03:29:52.031Z,13.80
2022-07-28T03:32:19.618Z,14.00
2022-07-28T03:34:46.767Z,13.90
2022-07-28T03:37:16.526Z,13.90
2022-07-28T03:39:46.944Z,13.90
2022-07-28T03:42:20.546Z,13.90
2022-07-28T03:44:47.740Z,13.90
2022-07-28T03:47:15.162Z,14.00
2022-07-28T03:49:45.521Z,14.10
2022-07-28T03:52:12.264Z,14.10
2022-07-28T03:54:39.014Z,14.20
2022-07-28T03:57:05.754Z,14.30
2022-07-28T03:59:32.447Z,14.40
2022-07-28T04:01:59.230Z,14.40
2022-07-28T04:04:26.160Z,14.40
2022-07-28T04:06:52.882Z,14.50
2022-07-28T04:09:19.629Z,14.50
2022-07-28T04:11:46.474Z,14.50
2022-07-28T04:14:16.656Z,14.60
2022-07-28T04:16:44.403Z,14.60
2022-07-28T04:19:11.580Z,14.70
2022-07-28T04:21:38.327Z,14.70
2022-07-28T04:24:05.265Z,14.80
2022-07-28T04:26:32.010Z,14.80
2022-07-28T04:28:58.753Z,14.90
2022-07-28T04:31:30.529Z,14.90
2022-07-28T04:33:57.319Z,14.90
2022-07-28T04:36:24.135Z,14.90
2022-07-28T04:38:51.230Z,15.00
2022-07-28T04:41:18.088Z,15.10
2022-07-28T04:43:45.676Z,15.10
2022-07-28T04:48:40.778Z,15.40
2022-07-28T04:51:07.845Z,15.40
2022-07-28T04:58:56.077Z,15.50
2022-07-28T05:01:24.009Z,15.60
2022-07-28T05:03:51.133Z,15.60
2022-07-28T05:06:18.872Z,15.70
2022-07-28T05:08:50.221Z,15.70
2022-07-28T05:11:17.420Z,15.80
2022-07-28T05:13:44.699Z,15.70
2022-07-28T05:16:11.983Z,15.80
2022-07-28T05:18:41.573Z,15.90
2022-07-28T05:21:08.543Z,15.90
2022-07-28T05:23:35.450Z,16.00
2022-07-28T05:26:02.407Z,16.10
2022-07-28T05:28:29.391Z,16.10
2022-07-28T05:30:56.400Z,16.10
2022-07-28T05:33:23.353Z,16.10
2022-07-28T05:35:57.858Z,16.10
2022-07-28T05:38:27.377Z,16.20
2022-07-28T05:40:54.342Z,16.20
2022-07-28T05:43:21.212Z,16.20
2022-07-28T05:45:48.743Z,16.20
2022-07-28T05:48:19.112Z,16.20
2022-07-28T05:50:46.462Z,16.40
2022-07-28T05:53:13.227Z,16.50
2022-07-28T05:56:00.760Z,16.50
2022-07-28T05:58:28.875Z,16.50
2022-07-28T06:00:58.424Z,16.50
2022-07-28T06:03:25.238Z,16.60
2022-07-28T06:06:09.329Z,16.60
2022-07-28T06:08:41.069Z,16.70
2022-07-28T06:11:17.933Z,16.70
2022-07-28T06:13:49.584Z,16.70
2022-07-28T06:16:16.500Z,16.80
2022-07-28T06:18:44.275Z,16.80
2022-07-28T06:21:11.235Z,16.80
2022-07-28T06:23:38.279Z,16.90
2022-07-28T06:26:05.155Z,16.90
2022-07-28T06:28:32.998Z,17.10
2022-07-28T06:30:59.721Z,17.10
2022-07-28T06:33:26.417Z,17.20
2022-07-28T06:35:53.152Z,17.20
2022-07-28T06:38:25.580Z,17.40
2022-07-28T06:40:52.378Z,17.50
2022-07-28T06:43:19.143Z,17.60
2022-07-28T06:45:45.893Z,17.70
2022-07-28T06:48:13.870Z,17.80
2022-07-28T06:50:41.528Z,18.00
2022-07-28T06:53:08.265Z,18.00
2022-07-28T06:55:35.860Z,18.10
2022-07-28T06:58:06.157Z,18.30
2022-07-28T07:00:33.055Z,18.40
2022-07-28T07:03:00.967Z,18.50
2022-07-28T07:05:32.269Z,18.60
2022-07-28T07:07:59.385Z,18.60
2022-07-28T07:10:26.316Z,18.70
2022-07-28T07:12:53.157Z,18.80
2022-07-28T07:15:19.914Z,18.70
2022-07-28T07:17:46.720Z,18.80
2022-07-28T07:20:14.336Z,19.00
2022-07-28T07:22:47.293Z,18.90
2022-07-28T07:25:15.896Z,18.90
2022-07-28T07:27:42.947Z,19.00
2022-07-28T07:30:10.562Z,19.10
2022-07-28T07:32:37.555Z,19.20
2022-07-28T07:35:05.041Z,19.30
2022-07-28T07:37:32.677Z,19.50
2022-07-28T07:40:00.275Z,19.60
2022-07-28T07:42:27.066Z,19.60
2022-07-28T07:44:53.817Z,19.70
2022-07-28T07:47:20.510Z,19.80
2022-07-28T07:49:47.301Z,19.90
2022-07-28T07:52:14.369Z,19.90
2022-07-28T07:54:41.643Z,20.00
2022-07-28T07:57:08.391Z,20.00
2022-07-28T07:59:35.365Z,20.00
2022-07-28T08:02:02.317Z,20.10
2022-07-28T08:04:29.383Z,20.00
2022-07-28T08:06:56.430Z,20.10
2022-07-28T08:09:23.419Z,20.10
2022-07-28T08:11:50.163Z,20.20
2022-07-28T08:14:17.816Z,20.40
2022-07-28T08:16:45.059Z,20.60
2022-07-28T08:19:11.852Z,20.80
2022-07-28T08:21:38.802Z,20.90
2022-07-28T08:24:05.753Z,21.10
2022-07-28T08:26:32.542Z,21.10
2022-07-28T08:28:59.307Z,21.30
2022-07-28T08:31:26.281Z,21.40
2022-07-28T08:33:54.594Z,21.40
2022-07-28T08:36:21.905Z,21.60
2022-07-28T08:38:48.625Z,21.80
2022-07-28T08:41:34.208Z,21.90
2022-07-28T08:44:02.429Z,21.90
2022-07-28T08:46:32.990Z,21.90
2022-07-28T08:49:00.017Z,21.80
2022-07-28T08:51:27.450Z,21.60
2022-07-28T08:53:54.794Z,21.70
2022-07-28T08:56:21.615Z,21.70
2022-07-28T08:58:48.360Z,21.60
2022-07-28T09:01:15.775Z,21.60
2022-07-28T09:03:42.761Z,21.60
2022-07-28T09:06:09.573Z,21.50
2022-07-28T09:08:36.678Z,21.50
2022-07-28T09:11:03.500Z,21.50
2022-07-28T09:13:30.352Z,21.50
2022-07-28T09:15:57.519Z,21.50
2022-07-28T09:18:24.374Z,21.60
2022-07-28T09:20:51.119Z,21.80
2022-07-28T09:23:43.083Z,22.20
2022-07-28T09:26:12.633Z,22.20
2022-07-28T09:28:51.868Z,22.20
2022-07-28T09:31:18.908Z,22.20
2022-07-28T09:33:57.851Z,22.20
2022-07-28T09:36:24.792Z,22.50
2022-07-28T09:38:51.747Z,22.40
2022-07-28T09:41:21.789Z,22.80
2022-07-28T09:43:54.495Z,22.80
2022-07-28T09:46:23.273Z,22.40
2022-07-28T09:48:52.006Z,22.70
2022-07-28T09:51:23.440Z,22.90
2022-07-28T09:53:50.428Z,23.20
2022-07-28T09:56:17.454Z,23.10
2022-07-28T09:58:54.627Z,23.00
2022-07-28T10:01:22.221Z,22.70
2022-07-28T10:03:56.105Z,22.80
2022-07-28T10:06:29.946Z,22.90
2022-07-28T10:09:04.029Z,23.20
2022-07-28T10:11:31.096Z,23.30
2022-07-28T10:13:57.856Z,23.00
2022-07-28T10:16:28.856Z,23.10
2022-07-28T10:18:56.626Z,23.40
2022-07-28T10:21:24.291Z,23.80
2022-07-28T10:23:52.550Z,23.90
2022-07-28T10:26:20.785Z,23.70
2022-07-28T10:28:49.177Z,24.20
2022-07-28T10:31:20.376Z,24.20
2022-07-28T10:33:48.731Z,23.60
2022-07-28T10:36:16.852Z,23.60
2022-07-28T10:38:43.828Z,23.60
2022-07-28T10:41:11.648Z,23.90
2022-07-28T10:43:42.908Z,24.20
2022-07-28T10:46:16.009Z,24.20
2022-07-28T10:48:43.804Z,23.80
2022-07-28T10:51:10.845Z,23.90
2022-07-28T10:53:54.533Z,24.00
2022-07-28T10:56:27.506Z,24.00
2022-07-28T10:59:04.716Z,24.00
2022-07-28T11:01:51.609Z,24.00
2022-07-28T11:04:37.003Z,24.00
2022-07-28T11:07:13.770Z,24.70
2022-07-28T11:09:40.632Z,24.90
2022-07-28T11:12:09.742Z,25.00
2022-07-28T11:14:38.278Z,25.30
2022-07-28T11:17:10.333Z,25.40
2022-07-28T11:20:00.820Z,25.40
2022-07-28T11:22:33.209Z,25.80
2022-07-28T11:25:19.849Z,25.90
2022-07-28T11:27:49.833Z,25.70
2022-07-28T11:30:21.292Z,25.80
2022-07-28T11:32:51.355Z,25.20
2022-07-28T11:35:19.170Z,24.90
2022-07-28T11:38:01.332Z,24.90
2022-07-28T11:40:31.536Z,25.50
2022-07-28T11:43:16.869Z,25.60
2022-07-28T11:45:54.088Z,25.50
2022-07-28T11:48:23.244Z,25.70
2022-07-28T11:51:05.315Z,26.30
2022-07-28T11:53:35.623Z,25.80
2022-07-28T11:56:09.814Z,25.80
2022-07-28T11:58:37.295Z,26.10
2022-07-28T12:01:19.076Z,26.60
2022-07-28T12:03:56.270Z,26.50
2022-07-28T12:06:27.349Z,25.90
2022-07-28T12:08:59.618Z,26.30
2022-07-28T12:11:27.724Z,26.70
2022-07-28T12:14:01.399Z,26.60
2022-07-28T12:16:28.947Z,26.30
2022-07-28T12:18:56.000Z,26.70
2022-07-28T12:21:35.757Z,26.90
2022-07-28T12:24:02.486Z,26.20
2022-07-28T12:26:31.425Z,25.60
2022-07-28T12:28:59.080Z,26.00
2022-07-28T12:31:29.896Z,26.60
2022-07-28T12:33:56.929Z,26.80
2022-07-28T12:36:26.592Z,27.10
2022-07-28T12:38:53.599Z,27.30
2022-07-28T12:41:20.637Z,27.60
2022-07-28T12:43:51.272Z,27.70
2022-07-28T12:46:28.476Z,27.10
2022-07-28T12:48:56.460Z,26.90
2022-07-28T12:51:29.930Z,26.50
2022-07-28T12:53:56.660Z,26.40
2022-07-28T12:56:23.417Z,26.60
2022-07-28T12:58:56.508Z,26.60
2022-07-28T13:01:23.327Z,26.90
2022-07-28T13:03:53.958Z,27.30
2022-07-28T13:06:20.940Z,27.40
2022-07-28T13:08:47.740Z,27.60
2022-07-28T13:11:42.048Z,27.70
2022-07-28T13:14:03.658Z,27.20
2022-07-28T13:16:30.488Z,26.70
2022-07-28T13:18:58.469Z,26.60
2022-07-28T13:21:57.614Z,26.60
2022-07-28T13:24:26.001Z,26.90
2022-07-28T13:26:52.723Z,26.90
2022-07-28T13:29:19.802Z,27.10
2022-07-28T13:31:46.762Z,27.20
2022-07-28T13:34:14.023Z,27.40
2022-07-28T13:36:41.193Z,27.70
2022-07-28T13:39:10.774Z,27.70
2022-07-28T13:41:42.058Z,27.90
2022-07-28T13:44:24.290Z,27.70
2022-07-28T13:46:51.692Z,27.80
2022-07-28T13:49:21.468Z,27.80
2022-07-28T13:51:48.796Z,28.10
2022-07-28T13:54:19.025Z,27.80
2022-07-28T13:56:46.569Z,27.90
2022-07-28T13:59:13.842Z,27.50
2022-07-28T14:01:41.424Z,27.30
2022-07-28T14:04:14.610Z,27.40
2022-07-28T14:06:45.115Z,27.30
2022-07-28T14:09:12.340Z,27.30
2022-07-28T14:11:49.317Z,27.60
2022-07-28T14:14:20.153Z,28.00
2022-07-28T14:16:48.055Z,28.20
2022-07-28T14:19:16.628Z,27.70
2022-07-28T14:21:50.460Z,27.90
2022-07-28T14:24:17.791Z,27.90
2022-07-28T14:26:44.688Z,28.30
2022-07-28T14:29:11.846Z,28.10
2022-07-28T14:31:38.727Z,27.90
2022-07-28T14:34:08.635Z,27.50
2022-07-28T14:36:35.484Z,27.40
2022-07-28T14:39:02.242Z,27.70
2022-07-28T14:41:28.944Z,27.50
2022-07-28T14:43:56.431Z,27.80
2022-07-28T14:46:29.691Z,27.70
2022-07-28T14:48:57.112Z,27.90
2022-07-28T14:51:23.863Z,28.00
2022-07-28T14:53:52.153Z,27.90
2022-07-28T14:56:19.054Z,28.00
2022-07-28T14:58:45.742Z,28.00
2022-07-28T15:01:12.491Z,27.90
2022-07-28T15:03:43.327Z,27.90
2022-07-28T15:06:10.613Z,27.60
2022-07-28T15:08:37.414Z,27.40
2022-07-28T15:11:04.371Z,27.70
2022-07-28T15:13:31.136Z,28.10
2022-07-28T15:16:00.044Z,28.20
2022-07-28T15:18:26.970Z,27.80
2022-07-28T15:20:56.183Z,27.60
2022-07-28T15:23:24.372Z,27.60
2022-07-28T15:25:51.555Z,27.50
2022-07-28T15:28:19.258Z,27.70
2022-07-28T15:30:51.738Z,27.80
2022-07-28T15:33:20.499Z,27.90
2022-07-28T15:35:59.344Z,27.60
2022-07-28T15:38:27.331Z,27.60
2022-07-28T15:40:54.157Z,27.50
2022-07-28T15:43:23.894Z,27.60
2022-07-28T15:45:50.938Z,27.60
2022-07-28T15:48:17.772Z,27.40
2022-07-28T15:50:48.772Z,27.40
2022-07-28T15:53:18.658Z,27.30
2022-07-28T15:55:50.852Z,27.20
2022-07-28T15:58:18.622Z,27.00
2022-07-28T16:00:46.065Z,27.00
2022-07-28T16:03:13.248Z,27.10
2022-07-28T16:05:40.223Z,27.10
2022-07-28T16:08:07.016Z,27.20
2022-07-28T16:10:33.906Z,27.20
2022-07-28T16:13:01.674Z,27.10
2022-07-28T16:15:28.573Z,26.90
2022-07-28T16:17:55.532Z,26.80
2022-07-28T16:20:22.253Z,27.00
2022-07-28T16:22:49.077Z,27.20
2022-07-28T16:25:20.396Z,27.00
2022-07-28T16:27:47.619Z,27.20
2022-07-28T16:30:15.231Z,27.00
2022-07-28T16:32:41.998Z,26.90
2022-07-28T16:35:08.992Z,26.70
2022-07-28T16:37:35.956Z,26.50
2022-07-28T16:40:06.163Z,26.50
2022-07-28T16:42:32.883Z,26.40
2022-07-28T16:44:59.590Z,26.40
2022-07-28T16:47:26.308Z,26.40
2022-07-28T16:49:53.061Z,26.40
2022-07-28T16:52:19.821Z,26.20
2022-07-28T16:54:47.405Z,26.10
2022-07-28T16:57:14.868Z,26.00
2022-07-28T16:59:47.760Z,25.80
2022-07-28T17:02:15.349Z,25.80
2022-07-28T17:04:42.178Z,25.60
2022-07-28T17:07:09.122Z,25.60
2022-07-28T17:09:35.854Z,25.60
2022-07-28T17:12:02.626Z,25.60
2022-07-28T17:14:29.333Z,25.50
2022-07-28T17:16:56.070Z,25.30
2022-07-28T17:19:22.788Z,25.30
2022-07-28T17:21:49.590Z,25.30
2022-07-28T17:24:16.750Z,25.20
2022-07-28T17:29:30.510Z,25.10
2022-07-28T17:31:57.233Z,25.10
2022-07-28T17:34:24.064Z,24.80
2022-07-28T17:36:50.869Z,24.80
2022-07-28T17:39:17.571Z,24.80
2022-07-28T17:41:44.287Z,24.70
2022-07-28T17:44:10.976Z,24.20
2022-07-28T17:46:37.949Z,23.80
2022-07-28T17:49:06.367Z,23.70
2022-07-28T17:51:33.216Z,23.70
2022-07-28T17:54:00.003Z,23.30
2022-07-28T17:56:27.515Z,23.20
2022-07-28T17:58:55.468Z,23.10
2022-07-28T18:01:22.226Z,23.20
2022-07-28T18:03:58.557Z,23.10
2022-07-28T18:06:28.373Z,22.80
2022-07-28T18:08:55.086Z,22.70
2022-07-28T18:11:21.799Z,22.40
2022-07-28T18:14:04.534Z,22.30
2022-07-28T18:16:35.322Z,22.10
2022-07-28T18:19:02.397Z,22.10
2022-07-28T18:21:29.248Z,22.00
2022-07-28T18:23:55.997Z,22.00
2022-07-28T18:26:22.731Z,21.90
2022-07-28T18:28:49.547Z,21.80
2022-07-28T18:31:16.345Z,21.50
2022-07-28T18:33:43.138Z,21.50
2022-07-28T18:36:10.248Z,21.60
2022-07-28T18:38:36.990Z,21.60
2022-07-28T18:41:03.706Z,21.50
2022-07-28T18:43:31.396Z,21.40
2022-07-28T18:45:58.146Z,21.20
2022-07-28T18:48:25.646Z,21.10
2022-07-28T18:50:52.573Z,21.10
2022-07-28T18:53:19.310Z,21.00
2022-07-28T18:55:46.109Z,20.80
2022-07-28T18:58:12.858Z,20.80
2022-07-28T19:00:39.606Z,20.90
2022-07-28T19:03:06.395Z,20.80
2022-07-28T19:05:37.136Z,20.70
2022-07-28T19:08:04.767Z,20.50
2022-07-28T19:10:32.434Z,20.40
2022-07-28T19:12:59.704Z,20.40
2022-07-28T19:15:26.558Z,20.40
2022-07-28T19:18:10.467Z,20.40
2022-07-28T19:20:44.047Z,20.40
2022-07-28T19:23:10.771Z,20.30
2022-07-28T19:25:38.785Z,20.00
2022-07-28T19:28:05.910Z,19.90
2022-07-28T19:30:33.043Z,19.90
2022-07-28T19:33:00.226Z,20.00
2022-07-28T19:35:27.217Z,19.80
2022-07-28T19:37:55.425Z,19.70
2022-07-28T19:40:22.276Z,19.70
2022-07-28T19:42:49.008Z,19.80
2022-07-28T19:45:15.792Z,19.90
2022-07-28T19:47:42.792Z,20.00
2022-07-28T19:50:09.639Z,19.90
2022-07-28T19:52:37.389Z,19.80
2022-07-28T19:55:05.254Z,19.70
2022-07-28T19:57:33.065Z,19.50
2022-07-28T20:00:01.930Z,19.50
2022-07-28T20:02:28.892Z,19.60
2022-07-28T20:04:55.971Z,19.70
2022-07-28T20:07:23.937Z,19.80
2022-07-28T20:09:50.833Z,19.90
2022-07-28T20:12:17.819Z,19.90
2022-07-28T20:14:44.516Z,19.70
2022-07-28T20:17:20.101Z,19.60
2022-07-28T20:19:57.953Z,19.60
2022-07-28T20:22:25.172Z,19.60
2022-07-28T20:24:51.904Z,19.50
2022-07-28T20:27:18.637Z,19.60
2022-07-28T20:29:45.338Z,19.70
2022-07-28T20:32:12.039Z,19.70
2022-07-28T20:34:38.840Z,19.40
2022-07-28T20:37:06.196Z,19.20
2022-07-28T20:39:44.994Z,19.20
2022-07-28T20:42:12.283Z,19.20
2022-07-28T20:44:39.025Z,19.20
2022-07-28T20:47:05.799Z,19.30
2022-07-28T20:49:32.569Z,19.40
2022-07-28T20:51:59.292Z,19.60
2022-07-28T20:54:26.128Z,19.70
2022-07-28T20:56:52.889Z,19.50
2022-07-28T20:59:19.622Z,19.40
2022-07-28T21:01:46.452Z,19.30
2022-07-28T21:04:13.701Z,19.20
2022-07-28T21:06:50.889Z,19.20
2022-07-28T21:09:18.362Z,19.20
2022-07-28T21:11:45.051Z,19.10
2022-07-28T21:14:11.905Z,19.30
2022-07-28T21:16:38.800Z,19.40
2022-07-28T21:19:05.869Z,19.30
2022-07-28T21:21:32.648Z,19.20
2022-07-28T21:23:59.339Z,19.20
2022-07-28T21:26:26.031Z,19.10
2022-07-28T21:29:11.200Z,19.10
2022-07-28T21:32:03.784Z,19.00
2022-07-28T21:34:26.862Z,18.90
2022-07-28T21:36:53.631Z,18.80
2022-07-28T21:39:20.367Z,18.70
2022-07-28T21:41:47.098Z,18.70
2022-07-28T21:44:13.990Z,18.60
2022-07-28T21:46:44.065Z,18.50
2022-07-28T21:49:10.994Z,18.40
2022-07-28T21:51:37.887Z,18.40
2022-07-28T21:54:04.771Z,18.30
2022-07-28T21:56:34.316Z,18.10
2022-07-28T21:59:01.613Z,18.10
2022-07-28T22:01:28.569Z,18.20
2022-07-28T22:03:55.451Z,18.40
2022-07-28T22:06:22.396Z,18.40
2022-07-28T22:08:54.034Z,18.50
2022-07-28T22:11:21.802Z,18.50
2022-07-28T22:13:48.635Z,18.30
2022-07-28T22:16:15.559Z,18.10
2022-07-28T22:18:42.331Z,18.30
2022-07-28T22:21:09.043Z,18.40
2022-07-28T22:23:35.741Z,18.30
2022-07-28T22:26:02.581Z,18.10
2022-07-28T22:28:30.583Z,17.80
2022-07-28T22:30:58.358Z,17.90
2022-07-28T22:33:25.059Z,18.00
2022-07-28T22:35:52.160Z,18.00
2022-07-28T22:38:18.873Z,18.00
2022-07-28T22:40:45.636Z,18.00
2022-07-28T22:43:12.447Z,17.80
2022-07-28T22:45:49.701Z,17.60
2022-07-28T22:48:18.765Z,17.70
2022-07-28T22:50:45.634Z,17.90
2022-07-28T22:53:12.340Z,17.70
2022-07-28T22:55:39.676Z,17.60
2022-07-28T22:58:06.404Z,17.70
2022-07-28T23:00:36.172Z,17.80
2022-07-28T23:03:03.962Z,17.90
2022-07-28T23:05:30.850Z,18.00
2022-07-28T23:07:58.862Z,18.00
2022-07-28T23:10:26.030Z,17.80
2022-07-28T23:12:54.225Z,17.90
2022-07-28T23:15:22.823Z,17.90
2022-07-28T23:17:50.489Z,17.90
2022-07-28T23:20:17.192Z,17.80
2022-07-28T23:22:43.878Z,17.70
2022-07-28T23:25:12.926Z,17.60
2022-07-28T23:27:39.679Z,17.70
2022-07-28T23:30:06.762Z,17.80
2022-07-28T23:32:33.529Z,17.80
2022-07-28T23:35:00.300Z,17.80
2022-07-28T23:37:27.032Z,17.90
2022-07-28T23:39:54.458Z,18.00
2022-07-28T23:42:21.223Z,17.90
2022-07-28T23:44:47.965Z,17.80
2022-07-28T23:47:14.728Z,17.80
2022-07-28T23:49:41.525Z,17.90
2022-07-28T23:52:08.213Z,18.00
2022-07-28T23:54:34.904Z,18.10
2022-07-28T23:57:01.605Z,18.10
2022-07-28T23:59:28.420Z,18.10
